Time;durP1;ratioP1;P1;durP2;ratioP2;P2;SDS_P1;SDS_P2;PMS_P1;PMS_P2;Temp;Humidity;BMP_temperature;BMP_pressure;BME280_temperature;BME280_humidity;BME280_pressure;Samples;Min_cycle;Max_cycle;Signal;HPM_P1;HPM_P2
2021/07/04 13:25:20;;;;;;;2.93;1.67;;;17.00;99.80;;;;;;4932234;29;20533;-84
2021/07/04 13:27:59;;;;;;;5.80;3.20;;;16.90;99.80;;;;;;4921133;29;20499;-85
2021/07/04 13:30:28;;;;;;;4.67;4.10;;;16.90;99.80;;;;;;4906468;29;20479;-87
2021/07/04 13:32:59;;;;;;;6.40;5.70;;;17.00;99.80;;;;;;4912721;29;20860;-87
2021/07/04 13:35:30;;;;;;;9.77;6.40;;;17.00;99.80;;;;;;4910297;29;20487;-82
2021/07/04 13:38:01;;;;;;;11.30;7.50;;;17.10;99.80;;;;;;4905077;29;20483;-83
2021/07/04 13:40:31;;;;;;;12.50;8.40;;;17.20;99.80;;;;;;4902354;29;20472;-84
2021/07/04 13:43:00;;;;;;;11.87;7.80;;;17.30;99.80;;;;;;4906031;29;20565;-84
2021/07/04 13:45:34;;;;;;;15.20;7.70;;;17.40;99.80;;;;;;4909178;29;20481;-89
2021/07/04 13:48:05;;;;;;;10.13;7.87;;;17.40;99.80;;;;;;4901815;29;20467;-87
2021/07/04 13:50:34;;;;;;;9.60;8.10;;;17.50;99.80;;;;;;4908348;29;21006;-85
2021/07/04 13:53:02;;;;;;;11.13;8.60;;;17.60;99.80;;;;;;4905761;29;20532;-84
2021/07/04 13:55:31;;;;;;;10.63;8.57;;;17.60;99.80;;;;;;4905402;29;20514;-85
2021/07/04 13:58:00;;;;;;;12.50;8.50;;;17.60;99.80;;;;;;4903959;29;20917;-84
2021/07/04 14:00:28;;;;;;;16.67;9.00;;;17.70;99.80;;;;;;4881957;29;20497;-84
2021/07/04 14:02:57;;;;;;;11.43;8.77;;;17.70;99.80;;;;;;4924278;29;20523;-86
2021/07/04 14:05:25;;;;;;;11.37;8.17;;;17.70;99.80;;;;;;4911945;29;20484;-87
2021/07/04 14:07:54;;;;;;;13.63;9.13;;;17.80;99.80;;;;;;4904788;29;20477;-85
2021/07/04 14:10:22;;;;;;;11.37;9.03;;;17.80;99.80;;;;;;4897861;29;20480;-85
2021/07/04 14:12:52;;;;;;;12.47;9.40;;;17.90;99.80;;;;;;4899649;29;20473;-87
2021/07/04 14:15:21;;;;;;;12.40;9.20;;;17.90;99.80;;;;;;4891961;29;20509;-86
2021/07/04 14:17:51;;;;;;;14.73;10.40;;;18.00;99.80;;;;;;4907320;29;20500;-87
2021/07/04 14:20:21;;;;;;;12.90;9.40;;;18.10;99.80;;;;;;4910277;29;20472;-87
2021/07/04 14:22:50;;;;;;;11.13;9.10;;;18.20;99.80;;;;;;4901730;29;20997;-87
2021/07/04 14:25:21;;;;;;;11.90;8.70;;;18.30;99.80;;;;;;4906948;29;20487;-87
2021/07/04 14:27:50;;;;;;;10.17;8.47;;;18.40;99.80;;;;;;4897421;29;20569;-86
2021/07/04 14:30:23;;;;;;;11.90;8.97;;;18.50;99.80;;;;;;4895439;29;20521;-87
2021/07/04 14:32:52;;;;;;;11.17;8.20;;;18.50;99.80;;;;;;4902021;29;20470;-87
2021/07/04 14:35:22;;;;;;;8.07;6.47;;;18.50;99.80;;;;;;4891450;29;20999;-87
2021/07/04 14:37:51;;;;;;;8.20;6.90;;;18.60;99.80;;;;;;4897312;29;20501;-87
2021/07/04 14:40:21;;;;;;;9.93;6.80;;;18.70;99.80;;;;;;4895273;29;20474;-87
2021/07/04 14:42:49;;;;;;;8.60;7.37;;;19.00;99.80;;;;;;4901876;29;20472;-88
2021/07/04 14:45:22;;;;;;;9.73;6.80;;;19.20;99.80;;;;;;4907417;29;20482;-87
2021/07/04 14:47:50;;;;;;;8.43;6.57;;;19.30;99.80;;;;;;4905634;29;20489;-87
2021/07/04 14:50:19;;;;;;;7.40;6.30;;;19.30;99.80;;;;;;4899712;29;20572;-87
2021/07/04 14:52:47;;;;;;;7.60;6.67;;;19.40;99.80;;;;;;4902142;29;20482;-87
2021/07/04 14:55:20;;;;;;;6.77;5.93;;;19.40;99.80;;;;;;4889097;29;20574;-87
2021/07/04 14:57:49;;;;;;;6.80;5.90;;;19.50;99.80;;;;;;4909933;29;20489;-87
2021/07/04 15:00:19;;;;;;;8.23;5.73;;;19.60;99.80;;;;;;4897071;29;20552;-87
2021/07/04 15:02:50;;;;;;;7.67;5.87;;;19.70;99.80;;;;;;4908930;29;20496;-87
2021/07/04 15:05:18;;;;;;;5.70;5.20;;;19.80;99.80;;;;;;4903857;29;20503;-87
2021/07/04 15:07:46;;;;;;;5.63;5.03;;;20.00;99.80;;;;;;4905780;29;20480;-87
2021/07/04 15:10:17;;;;;;;5.70;5.10;;;20.10;99.80;;;;;;4905348;29;20525;-87
2021/07/04 15:12:45;;;;;;;6.00;5.33;;;20.50;99.80;;;;;;4897542;29;20481;-87
2021/07/04 15:15:14;;;;;;;5.73;5.23;;;20.70;99.80;;;;;;4905928;29;20571;-87
2021/07/04 15:17:42;;;;;;;5.70;5.20;;;21.10;99.80;;;;;;4906493;29;20494;-88
2021/07/04 15:20:12;;;;;;;5.37;4.70;;;21.20;99.80;;;;;;4906198;29;20534;-87
2021/07/04 15:22:40;;;;;;;5.87;5.23;;;21.30;99.80;;;;;;4895666;29;20498;-87
2021/07/04 15:25:10;;;;;;;5.47;4.90;;;21.40;99.80;;;;;;4895532;29;20491;-87
2021/07/04 15:27:39;;;;;;;6.00;5.10;;;21.30;99.80;;;;;;4897131;29;20496;-88
2021/07/04 15:30:10;;;;;;;7.80;5.03;;;21.10;99.80;;;;;;4900704;29;20497;-88
2021/07/04 15:32:38;;;;;;;4.80;4.40;;;21.00;99.80;;;;;;4889712;29;20479;-88
2021/07/04 15:35:08;;;;;;;6.47;5.00;;;20.90;99.80;;;;;;4900428;29;20463;-88
2021/07/04 15:37:37;;;;;;;8.93;5.53;;;20.70;99.80;;;;;;4899486;29;20484;-88
2021/07/04 15:40:08;;;;;;;5.20;4.70;;;20.50;99.80;;;;;;4902870;29;20473;-88
2021/07/04 15:42:36;;;;;;;5.83;5.30;;;20.30;99.80;;;;;;4900354;29;20497;-89
2021/07/04 15:45:05;;;;;;;8.07;5.03;;;20.30;99.80;;;;;;4905617;29;20489;-88
2021/07/04 15:47:33;;;;;;;9.17;4.90;;;;;;;;;;4904602;29;20494;-89
2021/07/04 15:50:01;;;;;;;6.43;5.30;;;20.20;99.80;;;;;;4911558;29;20485;-88
2021/07/04 15:52:29;;;;;;;5.43;4.93;;;20.30;99.80;;;;;;4907780;29;20478;-88
2021/07/04 15:54:59;;;;;;;6.00;5.43;;;20.40;99.80;;;;;;4902951;29;20469;-89
2021/07/04 15:57:27;;;;;;;6.50;5.90;;;;;;;;;;4905759;29;20492;-89
2021/07/04 15:59:55;;;;;;;6.20;5.13;;;;;;;;;;4901977;29;20496;-88
2021/07/04 16:02:24;;;;;;;6.00;4.80;;;;;;;;;;4905321;29;20473;-88
2021/07/04 16:04:52;;;;;;;5.00;4.33;;;20.70;99.80;;;;;;4903796;29;20561;-88
2021/07/04 16:07:40;;;;;;;5.23;4.73;;;20.60;99.80;;;;;;4898465;29;20466;-86
2021/07/04 16:10:11;;;;;;;5.07;4.57;;;20.60;99.80;;;;;;4896128;29;20525;-88
2021/07/04 16:12:39;;;;;;;9.03;4.63;;;;;;;;;;4907393;29;20471;-88
2021/07/04 16:15:08;;;;;;;5.20;4.70;;;20.70;99.80;;;;;;4900618;29;20483;-89
2021/07/04 16:17:36;;;;;;;11.23;6.07;;;20.70;99.80;;;;;;4910648;29;20483;-89
2021/07/04 16:20:07;;;;;;;6.67;4.63;;;20.70;99.80;;;;;;4912353;29;20472;-88
2021/07/04 16:22:36;;;;;;;5.67;4.40;;;20.70;99.80;;;;;;4915474;29;21397;-89
2021/07/04 16:25:06;;;;;;;9.83;4.80;;;20.90;99.80;;;;;;4908137;29;20506;-89
2021/07/04 16:27:36;;;;;;;4.60;3.90;;;21.10;99.80;;;;;;4903116;29;20487;-88
2021/07/04 16:30:09;;;;;;;4.73;3.97;;;21.20;99.80;;;;;;4911047;29;20473;-89
2021/07/04 16:32:38;;;;;;;6.20;4.73;;;21.30;99.80;;;;;;4913117;29;20987;-88
2021/07/04 16:35:08;;;;;;;4.80;3.83;;;21.20;99.80;;;;;;4906727;29;20566;-88
2021/07/04 16:37:37;;;;;;;4.63;4.20;;;21.10;99.80;;;;;;4910069;29;20841;-89
2021/07/04 16:40:13;;;;;;;5.70;3.57;;;21.00;99.80;;;;;;4911085;29;21031;-89
2021/07/04 16:42:44;;;;;;;4.30;3.90;;;20.80;99.80;;;;;;4910713;29;20589;-89
2021/07/04 16:45:14;;;;;;;3.80;3.50;;;20.70;99.80;;;;;;4911579;29;20470;-88
2021/07/04 16:47:45;;;;;;;4.73;3.70;;;20.60;99.80;;;;;;4906944;29;20579;-88
2021/07/04 16:50:15;;;;;;;4.03;3.70;;;20.50;99.80;;;;;;4906412;29;20481;-88
2021/07/04 16:52:44;;;;;;;4.37;3.90;;;20.40;99.80;;;;;;4913165;29;20474;-89
2021/07/04 16:55:13;;;;;;;4.20;3.67;;;20.30;99.80;;;;;;4909837;29;20486;-88
2021/07/04 16:57:45;;;;;;;4.00;3.70;;;20.30;99.80;;;;;;4915570;29;20555;-88
2021/07/04 17:00:16;;;;;;;6.53;3.70;;;20.10;99.80;;;;;;4906364;29;20465;-88
2021/07/04 17:02:45;;;;;;;3.80;3.40;;;20.10;99.80;;;;;;4925833;29;20536;-88
2021/07/04 17:05:13;;;;;;;11.70;3.73;;;20.10;99.80;;;;;;4915431;29;20523;-88
2021/07/04 17:07:41;;;;;;;5.93;3.20;;;20.10;99.80;;;;;;4907864;29;20545;-89
2021/07/04 17:10:11;;;;;;;3.97;3.60;;;20.10;99.80;;;;;;4907781;29;20928;-88
2021/07/04 17:12:40;;;;;;;3.73;3.40;;;20.10;99.80;;;;;;4904934;29;20478;-88
2021/07/04 17:15:10;;;;;;;3.50;3.20;;;20.20;99.80;;;;;;4909597;29;20549;-87
2021/07/04 17:17:38;;;;;;;4.00;3.07;;;20.50;99.80;;;;;;4913197;29;20572;-87
2021/07/04 17:20:09;;;;;;;3.47;3.17;;;20.60;99.80;;;;;;4910405;29;20976;-86
2021/07/04 17:22:37;;;;;;;3.37;3.07;;;20.60;99.80;;;;;;4912006;29;20568;-87
2021/07/04 17:25:07;;;;;;;3.30;3.00;;;20.80;99.80;;;;;;4913736;29;20470;-87
2021/07/04 17:27:36;;;;;;;3.43;3.13;;;21.10;99.80;;;;;;4905678;29;20475;-86
2021/07/04 17:30:06;;;;;;;5.10;3.07;;;21.20;99.80;;;;;;4903184;29;21031;-87
2021/07/04 17:32:36;;;;;;;3.83;3.07;;;21.40;99.80;;;;;;4903095;29;20474;-86
2021/07/04 17:35:05;;;;;;;4.57;3.60;;;21.60;99.80;;;;;;4913445;29;20539;-87
2021/07/04 17:37:33;;;;;;;3.30;3.00;;;22.00;99.80;;;;;;4909161;29;20504;-86
2021/07/04 17:40:01;;;;;;;5.40;3.03;;;22.30;99.80;;;;;;4899206;29;20474;-86
2021/07/04 17:42:29;;;;;;;2.93;2.60;;;;;;;;;;4908409;29;20854;-87
2021/07/04 17:44:57;;;;;;;2.17;1.97;;;23.00;99.80;;;;;;4896631;29;20949;-87
2021/07/04 17:47:26;;;;;;;3.67;2.23;;;23.20;99.80;;;;;;4896298;29;20516;-87
2021/07/04 17:49:56;;;;;;;3.27;2.53;;;23.10;99.80;;;;;;4905668;29;20529;-86
2021/07/04 17:52:24;;;;;;;4.70;2.80;;;;;;;;;;4905918;29;21063;-87
2021/07/04 17:54:52;;;;;;;3.70;2.40;;;22.80;99.80;;;;;;4902885;29;20484;-87
2021/07/04 17:57:20;;;;;;;3.20;2.80;;;22.70;99.80;;;;;;4903468;29;20481;-87
2021/07/04 17:59:50;;;;;;;3.00;2.80;;;;;;;;;;4889366;29;20469;-87
2021/07/04 18:02:19;;;;;;;2.70;2.50;;;22.70;99.80;;;;;;4887813;29;20845;-86
2021/07/04 18:04:47;;;;;;;2.60;2.40;;;;;;;;;;4904480;29;21031;-86
2021/07/04 18:07:16;;;;;;;2.43;2.23;;;22.80;99.80;;;;;;4909754;29;20475;-88
2021/07/04 18:09:45;;;;;;;2.93;2.70;;;22.70;99.80;;;;;;4894201;29;20476;-88
2021/07/04 18:12:13;;;;;;;3.60;2.77;;;22.50;99.80;;;;;;4905209;29;20489;-87
2021/07/04 18:14:41;;;;;;;2.80;2.60;;;22.20;99.80;;;;;;4899359;29;20506;-87
2021/07/04 18:17:10;;;;;;;4.80;2.73;;;22.00;99.80;;;;;;4900038;29;20481;-87
2021/07/04 18:19:38;;;;;;;3.53;3.07;;;21.90;99.80;;;;;;4903487;29;20549;-87
2021/07/04 18:22:06;;;;;;;3.10;2.70;;;21.60;99.80;;;;;;4904165;29;20500;-86
2021/07/04 18:24:35;;;;;;;4.00;2.77;;;21.30;99.80;;;;;;4905879;29;20485;-86
2021/07/04 18:27:04;;;;;;;3.93;3.03;;;21.10;99.80;;;;;;4902068;29;20470;-87
2021/07/04 18:29:32;;;;;;;3.60;3.30;;;21.00;99.80;;;;;;4897759;29;20481;-86
2021/07/04 18:32:00;;;;;;;3.63;3.07;;;20.90;99.80;;;;;;4900906;29;20485;-86
2021/07/04 18:34:28;;;;;;;4.57;3.93;;;;;;;;;;4898776;29;20497;-85
2021/07/04 18:36:57;;;;;;;3.60;3.30;;;;;;;;;;4892668;29;20589;-85
2021/07/04 18:39:25;;;;;;;4.47;3.30;;;;;;;;;;4892518;29;20487;-86
2021/07/04 18:41:54;;;;;;;3.50;3.20;;;20.20;99.80;;;;;;4883149;29;20468;-86
2021/07/04 18:44:22;;;;;;;4.13;3.73;;;20.10;99.80;;;;;;4870551;29;20472;-85
2021/07/04 18:46:51;;;;;;;3.80;3.40;;;;;;;;;;4889100;29;20482;-85
2021/07/04 18:49:20;;;;;;;3.80;3.50;;;19.90;99.80;;;;;;4887860;29;20883;-86
2021/07/04 18:51:48;;;;;;;4.67;4.10;;;19.80;99.80;;;;;;4881527;29;20566;-84
2021/07/04 18:54:16;;;;;;;3.90;3.53;;;;;;;;;;4907015;29;20855;-85
2021/07/04 18:56:44;;;;;;;4.57;4.17;;;;;;;;;;4923217;29;20847;-84
2021/07/04 18:59:14;;;;;;;4.67;3.90;;;19.60;99.80;;;;;;4922066;29;20488;-85
2021/07/04 19:01:42;;;;;;;6.10;4.67;;;19.60;99.80;;;;;;4938688;29;20476;-85
2021/07/04 19:04:10;;;;;;;5.03;4.57;;;19.60;99.80;;;;;;4928834;29;20485;-85
2021/07/04 19:06:38;;;;;;;4.17;3.77;;;;;;;;;;4892657;29;20473;-85
2021/07/04 19:09:08;;;;;;;4.20;3.87;;;19.50;99.80;;;;;;4892790;29;20848;-86
2021/07/04 19:11:37;;;;;;;4.30;3.87;;;19.50;99.80;;;;;;4903439;29;20485;-85
2021/07/04 19:14:07;;;;;;;5.23;4.10;;;19.50;99.80;;;;;;4903340;29;20524;-85
2021/07/04 19:16:36;;;;;;;4.00;3.60;;;19.40;99.80;;;;;;4905408;29;20481;-85
2021/07/04 19:19:05;;;;;;;6.60;4.07;;;19.40;99.80;;;;;;4898476;29;20502;-86
2021/07/04 19:21:33;;;;;;;6.30;4.20;;;19.30;99.80;;;;;;4903049;29;20461;-86
2021/07/04 19:24:01;;;;;;;4.83;4.20;;;19.30;99.80;;;;;;4901133;29;20476;-86
2021/07/04 19:26:30;;;;;;;5.07;4.57;;;19.20;99.80;;;;;;4899444;29;21305;-86
2021/07/04 19:28:58;;;;;;;5.20;4.47;;;19.10;99.80;;;;;;4897163;29;20465;-86
2021/07/04 19:31:26;;;;;;;5.23;4.73;;;19.00;99.80;;;;;;4892199;29;20482;-86
2021/07/04 19:33:56;;;;;;;4.30;3.87;;;18.90;99.80;;;;;;4898170;29;20518;-86
2021/07/04 19:36:25;;;;;;;10.20;4.30;;;18.80;99.80;;;;;;4903107;29;20465;-86
2021/07/04 19:38:53;;;;;;;5.20;4.47;;;18.70;99.80;;;;;;4900882;29;20493;-86
2021/07/04 19:41:22;;;;;;;5.23;4.83;;;18.70;99.80;;;;;;4899025;29;20488;-86
2021/07/04 19:43:50;;;;;;;7.10;4.50;;;18.60;99.80;;;;;;4892901;29;20484;-86
2021/07/04 19:46:18;;;;;;;12.30;5.13;;;18.50;99.80;;;;;;4900202;29;20478;-86
2021/07/04 19:48:46;;;;;;;5.20;4.67;;;18.50;99.80;;;;;;4907293;29;20936;-86
2021/07/04 19:51:16;;;;;;;12.40;5.77;;;18.40;99.80;;;;;;4900819;29;20489;-85
2021/07/04 19:53:44;;;;;;;7.87;4.80;;;;;;;;;;4894608;29;20489;-85
2021/07/04 19:56:12;;;;;;;5.23;3.70;;;18.30;99.80;;;;;;4895029;29;20456;-85
2021/07/04 19:58:40;;;;;;;5.13;4.50;;;18.30;99.80;;;;;;4887936;29;20497;-86
2021/07/04 20:01:08;;;;;;;5.00;4.20;;;18.20;99.80;;;;;;4902301;29;20520;-84
2021/07/04 20:06:23;;;;;;;7.83;5.07;;;18.10;99.80;;;;;;4900721;29;20473;-85
2021/07/04 20:08:52;;;;;;;6.70;5.70;;;18.10;99.80;;;;;;4896560;29;20471;-86
2021/07/04 20:11:22;;;;;;;10.93;6.00;;;18.10;99.80;;;;;;4888639;29;20494;-85
2021/07/04 20:13:50;;;;;;;7.17;5.70;;;18.10;99.80;;;;;;4897835;29;20478;-85
2021/07/04 20:16:18;;;;;;;6.30;4.97;;;18.10;99.80;;;;;;4892762;29;20628;-86
2021/07/04 20:18:46;;;;;;;11.80;7.30;;;18.10;99.80;;;;;;4906343;29;20955;-85
2021/07/04 20:21:14;;;;;;;7.93;6.33;;;18.10;99.80;;;;;;4910734;29;20474;-85
2021/07/04 20:23:46;;;;;;;5.70;5.20;;;18.10;99.80;;;;;;4908026;29;20882;-86
2021/07/04 20:26:14;;;;;;;7.27;5.80;;;18.20;99.80;;;;;;4896122;29;20472;-86
2021/07/04 20:28:42;;;;;;;7.60;5.30;;;18.20;99.80;;;;;;4901880;29;20486;-86
2021/07/04 20:31:11;;;;;;;11.87;5.47;;;18.20;99.80;;;;;;4895299;29;20497;-86
2021/07/04 20:33:39;;;;;;;6.63;3.67;;;18.20;99.80;;;;;;4902590;29;22689;-86
2021/07/04 20:36:07;;;;;;;6.10;3.30;;;18.10;99.80;;;;;;4895277;29;21444;-85
2021/07/04 20:38:36;;;;;;;4.07;3.47;;;18.10;99.80;;;;;;4898574;29;20492;-85
2021/07/04 20:41:06;;;;;;;8.10;3.70;;;18.00;99.80;;;;;;4896018;29;20492;-86
2021/07/04 20:43:34;;;;;;;3.37;3.07;;;18.00;99.80;;;;;;4907971;29;20472;-85
2021/07/04 20:46:02;;;;;;;3.67;3.17;;;17.90;99.80;;;;;;4901788;29;20865;-86
2021/07/04 20:48:30;;;;;;;11.40;3.00;;;17.90;99.80;;;;;;4907027;29;20482;-85
2021/07/04 20:50:59;;;;;;;3.73;3.33;;;17.80;99.80;;;;;;4904938;29;20469;-86
2021/07/04 20:53:27;;;;;;;2.60;2.40;;;17.80;99.80;;;;;;4903368;29;20488;-85
2021/07/04 20:55:55;;;;;;;2.60;2.40;;;;;;;;;;4902383;29;20999;-85
2021/07/04 20:58:25;;;;;;;7.80;3.23;;;17.70;99.80;;;;;;4889904;29;20490;-85
2021/07/04 21:00:54;;;;;;;4.40;3.13;;;17.70;99.80;;;;;;4876342;29;20489;-85
2021/07/04 21:03:22;;;;;;;4.23;2.63;;;17.60;99.80;;;;;;4916240;29;20489;-85
2021/07/04 21:05:50;;;;;;;3.63;3.17;;;17.50;99.80;;;;;;4909268;29;20450;-88
2021/07/04 21:08:18;;;;;;;2.27;1.97;;;17.50;99.80;;;;;;4905568;29;20576;-85
2021/07/04 21:10:46;;;;;;;5.83;2.40;;;;;;;;;;4897475;29;20476;-86
2021/07/04 21:13:15;;;;;;;4.63;2.63;;;;;;;;;;4908877;29;20504;-85
2021/07/04 21:15:44;;;;;;;3.80;2.20;;;17.40;99.80;;;;;;4900215;29;20495;-85
2021/07/04 21:18:13;;;;;;;4.43;2.27;;;17.40;99.80;;;;;;4902276;29;20476;-85
2021/07/04 21:20:41;;;;;;;7.50;2.37;;;17.30;99.80;;;;;;4901384;29;20478;-85
2021/07/04 21:23:09;;;;;;;2.93;2.33;;;17.30;99.80;;;;;;4904361;29;20478;-87
2021/07/04 21:25:37;;;;;;;5.07;2.20;;;17.30;99.80;;;;;;4901753;29;20477;-87
2021/07/04 21:28:06;;;;;;;4.50;2.20;;;17.30;99.80;;;;;;4897016;29;20482;-87
2021/07/04 21:30:35;;;;;;;4.83;2.40;;;17.30;99.80;;;;;;4904031;29;20497;-87
2021/07/04 21:33:05;;;;;;;5.13;2.40;;;17.20;99.80;;;;;;4908058;29;20488;-87
2021/07/04 21:35:34;;;;;;;6.43;2.33;;;17.20;99.80;;;;;;4910144;29;20473;-86
2021/07/04 21:38:03;;;;;;;2.60;2.00;;;17.10;99.80;;;;;;4902751;29;20500;-87
2021/07/04 21:40:32;;;;;;;2.50;2.00;;;17.10;99.80;;;;;;4896829;29;20827;-87
2021/07/04 21:43:01;;;;;;;2.33;2.07;;;17.00;99.80;;;;;;4904986;29;20485;-87
2021/07/04 21:45:29;;;;;;;3.00;2.00;;;17.00;99.80;;;;;;4893072;29;20482;-86
2021/07/04 21:47:57;;;;;;;3.63;2.03;;;17.00;99.80;;;;;;4884895;29;20478;-86
2021/07/04 21:50:27;;;;;;;4.40;2.37;;;16.90;99.80;;;;;;4892610;29;20497;-86
2021/07/04 21:52:55;;;;;;;2.20;2.00;;;16.90;99.80;;;;;;4892370;29;20492;-86
2021/07/04 21:55:24;;;;;;;3.40;2.80;;;16.90;99.80;;;;;;4886996;29;20485;-86
2021/07/04 21:57:53;;;;;;;2.30;2.10;;;16.80;99.80;;;;;;4895463;29;21330;-85
2021/07/04 22:00:27;;;;;;;2.50;2.30;;;16.80;99.80;;;;;;4898287;29;20492;-86
2021/07/04 22:02:55;;;;;;;3.40;2.30;;;16.80;99.80;;;;;;4916116;29;20488;-86
2021/07/04 22:05:23;;;;;;;3.33;2.20;;;16.80;99.80;;;;;;4929681;29;20478;-86
2021/07/04 22:07:53;;;;;;;3.77;2.63;;;16.80;99.80;;;;;;4892759;29;20481;-86
2021/07/04 22:10:21;;;;;;;4.10;2.60;;;16.70;99.80;;;;;;4890582;29;21032;-86
2021/07/04 22:12:50;;;;;;;4.10;2.80;;;16.70;99.80;;;;;;4890328;29;20467;-87
2021/07/04 22:15:20;;;;;;;3.53;2.67;;;16.60;99.80;;;;;;4881040;29;20482;-86
2021/07/04 22:17:48;;;;;;;6.10;2.37;;;16.60;99.80;;;;;;4912749;29;20491;-85
2021/07/04 22:20:19;;;;;;;8.53;2.53;;;16.60;99.80;;;;;;4907666;29;20483;-86
2021/07/04 22:22:48;;;;;;;5.17;3.10;;;16.60;99.80;;;;;;4907728;29;21282;-86
2021/07/04 22:25:19;;;;;;;5.60;2.57;;;16.50;99.80;;;;;;4909061;29;21045;-85
2021/07/04 22:27:48;;;;;;;5.50;2.67;;;16.50;99.80;;;;;;4904789;29;20489;-86
2021/07/04 22:30:18;;;;;;;4.30;2.53;;;16.50;99.80;;;;;;4907842;29;20483;-86
2021/07/04 22:32:47;;;;;;;2.53;2.33;;;16.50;99.80;;;;;;4912430;29;20974;-85
2021/07/04 22:35:16;;;;;;;3.37;2.57;;;16.50;99.80;;;;;;4912664;29;20479;-86
2021/07/04 22:37:45;;;;;;;7.80;3.00;;;16.50;99.80;;;;;;4911653;29;21018;-85
2021/07/04 22:40:18;;;;;;;4.00;3.57;;;16.50;99.80;;;;;;4913572;29;20983;-85
2021/07/04 22:42:47;;;;;;;3.50;3.20;;;16.40;99.80;;;;;;4893253;29;20472;-86
2021/07/04 22:45:16;;;;;;;3.10;2.80;;;16.40;99.80;;;;;;4887819;29;21019;-86
2021/07/04 22:47:45;;;;;;;4.43;3.00;;;16.40;99.80;;;;;;4895946;29;20480;-86
2021/07/04 22:50:15;;;;;;;4.33;2.90;;;16.40;99.80;;;;;;4909770;29;21050;-85
2021/07/04 22:52:44;;;;;;;5.30;3.40;;;16.40;99.80;;;;;;4899507;29;20492;-86
2021/07/04 22:55:14;;;;;;;5.27;3.40;;;16.40;99.80;;;;;;4908027;29;20955;-86
2021/07/04 22:57:46;;;;;;;5.47;3.40;;;16.30;99.80;;;;;;4910096;29;20492;-86
2021/07/04 23:00:18;;;;;;;4.70;3.80;;;16.30;99.80;;;;;;4880025;29;20476;-86
2021/07/04 23:02:48;;;;;;;3.90;3.00;;;16.30;99.80;;;;;;4908642;29;20480;-86
2021/07/04 23:05:17;;;;;;;3.63;3.00;;;16.30;99.80;;;;;;4911924;29;21046;-86
2021/07/04 23:07:46;;;;;;;4.73;3.30;;;16.30;99.80;;;;;;4912033;29;21037;-86
2021/07/04 23:10:15;;;;;;;3.80;3.50;;;16.20;99.80;;;;;;4913958;29;20486;-86
2021/07/04 23:12:46;;;;;;;7.00;3.43;;;16.30;99.80;;;;;;4907715;29;20471;-86
2021/07/04 23:15:16;;;;;;;5.87;4.00;;;16.30;99.80;;;;;;4902086;29;20578;-86
2021/07/04 23:17:44;;;;;;;4.30;3.53;;;16.30;99.80;;;;;;4912560;29;20855;-85
2021/07/04 23:20:15;;;;;;;6.47;3.60;;;16.20;99.80;;;;;;4905443;29;20558;-85
2021/07/04 23:22:44;;;;;;;5.77;3.50;;;16.20;99.80;;;;;;4905094;29;20479;-84
2021/07/04 23:25:13;;;;;;;9.20;3.50;;;16.30;99.80;;;;;;4900256;29;20455;-84
2021/07/04 23:27:42;;;;;;;6.20;3.27;;;16.20;99.80;;;;;;4898162;29;20485;-84
2021/07/04 23:30:13;;;;;;;6.30;4.07;;;16.30;99.80;;;;;;4893306;29;20560;-84
2021/07/04 23:32:42;;;;;;;9.67;3.60;;;16.30;99.80;;;;;;4892983;29;20501;-85
2021/07/04 23:35:11;;;;;;;7.27;3.30;;;16.20;99.80;;;;;;4914505;29;20942;-85
2021/07/04 23:37:40;;;;;;;4.80;4.10;;;16.20;99.80;;;;;;4913678;29;20538;-85
2021/07/04 23:40:10;;;;;;;8.10;3.73;;;16.10;99.80;;;;;;4917290;29;20453;-85
2021/07/04 23:42:38;;;;;;;7.20;3.93;;;16.10;99.80;;;;;;4913755;29;20451;-85
2021/07/04 23:45:26;;;;;;;7.70;4.33;;;16.10;99.80;;;;;;4910246;29;20463;-85
2021/07/04 23:47:54;;;;;;;5.90;3.27;;;16.10;99.80;;;;;;4915251;29;20539;-85
2021/07/04 23:50:22;;;;;;;4.27;3.87;;;16.00;99.80;;;;;;4917282;29;20891;-84
2021/07/04 23:52:50;;;;;;;4.83;3.90;;;16.00;99.80;;;;;;4914697;29;20849;-84
2021/07/04 23:55:18;;;;;;;6.53;3.60;;;16.00;99.80;;;;;;4915979;29;20485;-85
2021/07/04 23:57:46;;;;;;;5.90;4.43;;;15.90;99.80;;;;;;4916311;29;20575;-84
